• Join FlightAware (Why Join?)
  • Login
  • US Flag 
11:00AM EST


 

Airport Tracker/Info


-or-


 

Live Flight TrackerFlight Track Log ✈ N960DL ✈ 31-Jul-2013 ✈ KMLB - KATL

Flight Track Log - Related Links

Times and Time Zones

All times are in EDT time to prevent confusion due to time zone crossing. See the N960DL flight status page for this flight to view local times or setup timezone preferences in your user account.

Time Position Orientation Groundspeed Altitude Reporting Facility
EDT Latitude Longitude Course Direction KTS MPH feet Rate Location/Type
06:50PM 28.1167 -80.5500 77° East 230 265 3,300  Level Orlando TRACON
06:51PM 28.1667 -80.5333 16° North 258 297 6,200 2,695 Climbing Orlando TRACON
06:52PM 28.3296 -80.7469 296° West  Level FlightAware Approximate
06:53PM 28.3740 -80.8601 287° West  Level FlightAware Approximate
06:54PM 28.4063 -80.9788 287° West  Level FlightAware Approximate
06:54PM 28.2022 -80.7000 284° West 294 338 11,700  Level Jacksonville Center
06:55PM 28.4544 -81.0777 294° West  Level FlightAware Approximate
06:55PM 28.2497 -80.8050 297° West 344 396 13,500  Level Jacksonville Center
06:56PM 28.3447 -80.8714 328° Northwest 349 402 14,000 250 Climbing Jacksonville Center
06:57PM 28.4356 -80.9428 325° Northwest 373 429 14,000 250 Level Jacksonville Center
06:58PM 28.5286 -81.0117 327° Northwest 387 445 14,500 900 Climbing Jacksonville Center
06:59PM 28.6253 -81.0761 330° Northwest 400 460 15,800 1,800 Climbing Jacksonville Center
07:00PM 28.7344 -81.1167 342° North 405 466 18,100 2,350 Climbing Jacksonville Center
07:01PM 28.8575 -81.1169 360° North 417 480 20,500 2,500 Climbing Jacksonville Center
07:02PM 28.9933 -81.1264 357° North 434 499 23,100 2,150 Climbing Jacksonville Center
07:03PM 29.1208 -81.1336 357° North 445 512 24,800 1,664 Climbing Jacksonville Center
07:04PM 29.2525 -81.1408 357° North 455 524 26,400 1,563 Climbing Jacksonville Center
07:05PM 29.3861 -81.1433 359° North 461 531 27,900 1,388 Climbing Jacksonville Center
07:06PM 29.5156 -81.1528 356° North 467 537 29,200 1,388 Climbing Jacksonville Center
07:07PM 29.6472 -81.1578 358° North 472 543 30,700 1,350 Climbing Jacksonville Center
07:08PM 29.7789 -81.1600 359° North 472 543 31,900 1,160 Climbing Jacksonville Center
07:09PM 29.9083 -81.1744 354° North 472 543 33,000 1,050 Climbing Jacksonville Center
07:10PM 30.0300 -81.2253 340° North 450 518 34,000 893 Climbing Jacksonville Center
07:11PM 30.1394 -81.2928 332° Northwest 450 518 34,800 504 Climbing Jacksonville Center
07:12PM 30.2469 -81.3633 330° Northwest 444 511 35,000 100 Climbing Jacksonville Center
07:13PM 30.3564 -81.4314 332° Northwest 444 511 35,000  Level Jacksonville Center
07:14PM 30.4636 -81.5044 330° Northwest 444 511 35,000  Level Jacksonville Center
07:15PM 30.5728 -81.5728 332° Northwest 449 517 35,000  Level Jacksonville Center
07:16PM 30.6842 -81.6461 330° Northwest 449 517 35,000  Level Jacksonville Center
07:17PM 30.7914 -81.7172 330° Northwest 449 517 35,000  Level Jacksonville Center
07:18PM 30.9006 -81.7886 331° Northwest 449 517 35,000  Level Jacksonville Center
07:19PM 31.0056 -81.8575 331° Northwest 449 517 35,000 -50 Level Jacksonville Center
07:20PM 31.1128 -81.9269 331° Northwest 443 510 34,900  Descending Jacksonville Center
07:21PM 31.2175 -81.9961 331° Northwest 443 510 35,000 50 Climbing Jacksonville Center
07:22PM 31.3244 -82.0706 329° Northwest 443 510 35,000  Level Jacksonville Center
07:24PM 31.5453 -82.2064 332° Northwest 442 509 35,000  Level Atlanta Center
07:25PM 31.6506 -82.2775 330° Northwest 437 503 35,000  Level Atlanta Center
07:26PM 31.7581 -82.3461 332° Northwest 437 503 35,000  Level Atlanta Center
07:27PM 31.8653 -82.4128 332° Northwest 437 503 35,000  Level Atlanta Center
07:28PM 31.9747 -82.4744 334° Northwest 437 503 35,000  Level Atlanta Center
07:29PM 32.0839 -82.5411 333° Northwest 437 503 35,000 -200 Level Atlanta Center
07:30PM 32.1789 -82.6303 322° Northwest 442 509 34,600 -900 Descending Atlanta Center
07:31PM 32.2739 -82.7244 320° Northwest 442 509 33,200 -1,250 Descending Atlanta Center
07:32PM 32.3644 -82.8117 321° Northwest 442 509 32,100 -1,250 Descending Atlanta Center
07:33PM 32.4428 -82.9042 315° West 415 478 30,700 -1,700 Descending Atlanta Center
07:34PM 32.5186 -82.9894 317° Northwest 393 452 28,700 -1,950 Descending Atlanta Center
07:35PM 32.5922 -83.0750 316° Northwest 380 437 26,800 -2,050 Descending Atlanta Center
07:36PM 32.6639 -83.1581 316° Northwest 368 423 24,600 -2,000 Descending Atlanta Center
07:37PM 32.7292 -83.2364 315° West 354 407 22,800 -1,800 Descending Atlanta Center
07:38PM 32.7944 -83.3097 317° Northwest 337 388 21,000 -1,850 Descending Atlanta Center
07:39PM 32.8594 -83.3858 315° West 331 381 19,100 -1,800 Descending Atlanta Center
07:40PM 32.9183 -83.4622 313° West 321 369 17,400 -1,850 Descending Atlanta Center
07:41PM 32.9792 -83.5361 314° West 315 362 15,400 -1,900 Descending Atlanta Center
07:42PM 33.0400 -83.6028 317° Northwest 310 357 13,600 -1,500 Descending Atlanta Center
07:43PM 33.0944 -83.6719 313° West 310 357 12,400 -800 Descending Atlanta Center
07:44PM 33.1553 -83.7386 317° Northwest 305 351 12,000 -231 Descending Atlanta Center
07:44PM 33.2000 -83.7833 320° Northwest 291 335 12,000 -327 Level Atlanta TRACON
07:45PM 33.2667 -83.8667 314° West 289 333 11,400 -1,000 Descending Atlanta TRACON
07:46PM 33.3000 -83.9333 301° West 281 323 10,000 -1,632 Descending Atlanta TRACON
07:47PM 33.3500 -84.0000 312° West 277 319 8,300 -1,667 Descending Atlanta TRACON
07:48PM 33.4333 -84.0167 351° North 262 302 6,500 -1,588 Descending Atlanta TRACON
07:50PM 33.5144 -84.0414 346° North 253 291 4,700 -1,292 Descending Atlanta Center
07:51PM 33.5875 -84.0589 349° North 258 297 3,700 -850 Descending Atlanta Center
07:52PM 33.6167 -84.1286 297° West 230 265 3,000 -382 Descending Atlanta Center
07:52PM 33.6167 -84.1833 270° West 216 249 3,000  Level Atlanta TRACON
07:53PM 33.6167 -84.2500 270° West 216 249 3,000 -263 Level Atlanta TRACON
07:54PM 33.6167 -84.3167 270° West 199 229 2,500 -650 Descending Atlanta TRACON
07:55PM 33.6167 -84.3667 270° West 140 161 1,700 -800 Descending Atlanta TRACON